Time,TemperatureF,DewpointF,PressureIn,WindDirection,WindDirectionDegrees,WindSpeedMPH,WindSpeedGustMPH,Humidity,HourlyPrecipIn,Conditions,Clouds,dailyrainin,SoftwareType,DateUTC
2013-01-06 00:00:00,41.1,39.0,30.17,WSW,237,9.0,16.0,92,0.00,,---,0.10,VWS V14.01,2013-01-06 08:00:00,
2013-01-06 00:05:00,41.1,39.0,30.17,SSE,161,8.0,14.0,92,0.00,,---,0.00,VWS V14.01,2013-01-06 08:05:00,
2013-01-06 00:10:00,41.0,38.9,30.17,SSE,164,6.0,14.0,92,0.00,,---,0.00,VWS V14.01,2013-01-06 08:10:00,
2013-01-06 00:15:00,41.0,38.9,30.17,NW,305,4.0,14.0,92,0.00,,---,0.00,VWS V14.01,2013-01-06 08:15:00,
2013-01-06 00:20:00,41.0,38.9,30.17,SE,144,6.0,16.0,92,0.00,,---,0.00,VWS V14.01,2013-01-06 08:20:00,
2013-01-06 00:25:00,41.0,38.9,30.17,South,172,6.0,16.0,92,0.00,,---,0.00,VWS V14.01,2013-01-06 08:25:00,
2013-01-06 00:30:00,40.9,38.8,30.17,SSE,159,8.0,16.0,92,0.00,,---,0.00,VWS V14.01,2013-01-06 08:30:00,
2013-01-06 00:35:00,40.9,38.8,30.17,SSE,164,9.0,10.0,92,0.00,,---,0.00,VWS V14.01,2013-01-06 08:35:00,
2013-01-06 00:40:00,40.9,38.8,30.16,South,171,5.0,10.0,92,0.00,,---,0.00,VWS V14.01,2013-01-06 08:40:00,
2013-01-06 00:45:00,40.8,38.7,30.16,SSE,155,8.0,12.0,92,0.00,,---,0.00,VWS V14.01,2013-01-06 08:45:00,
2013-01-06 00:50:00,40.8,38.7,30.17,SW,217,5.0,12.0,92,0.00,,---,0.00,VWS V14.01,2013-01-06 08:50:00,
2013-01-06 00:55:00,40.8,38.7,30.17,SE,137,7.0,12.0,92,0.00,,---,0.00,VWS V14.01,2013-01-06 08:55:00,
2013-01-06 01:00:00,40.7,38.6,30.17,SE,146,8.0,12.0,92,0.00,,---,0.00,VWS V14.01,2013-01-06 09:00:00,
2013-01-06 01:05:00,40.7,38.6,30.17,SW,225,6.0,10.0,92,0.00,,---,0.00,VWS V14.01,2013-01-06 09:05:00,
2013-01-06 01:10:00,40.7,38.6,30.17,South,176,7.0,11.0,92,0.00,,---,0.00,VWS V14.01,2013-01-06 09:10:00,
2013-01-06 01:15:00,40.7,38.8,30.17,South,191,5.0,11.0,93,0.00,,---,0.00,VWS V14.01,2013-01-06 09:15:00,
2013-01-06 01:20:00,40.7,38.8,30.17,SSE,159,7.0,8.0,93,0.00,,---,0.00,VWS V14.01,2013-01-06 09:20:00,
2013-01-06 01:25:00,40.7,38.8,30.17,SSE,159,8.0,11.0,93,0.00,,---,0.00,VWS V14.01,2013-01-06 09:25:00,
2013-01-06 01:30:00,40.6,38.7,30.17,South,184,6.0,11.0,93,0.00,,---,0.00,VWS V14.01,2013-01-06 09:30:00,
2013-01-06 01:35:00,40.6,38.7,30.17,SSE,155,5.0,12.0,93,0.00,,---,0.00,VWS V14.01,2013-01-06 09:35:00,
2013-01-06 01:40:00,40.6,38.7,30.18,SE,141,2.0,12.0,93,0.00,,---,0.00,VWS V14.01,2013-01-06 09:40:00,
2013-01-06 01:45:00,40.6,38.7,30.18,SSE,165,6.0,12.0,93,0.00,,---,0.00,VWS V14.01,2013-01-06 09:45:00,
2013-01-06 01:50:00,40.7,38.6,30.18,SSE,162,5.0,9.0,92,0.00,,---,0.00,VWS V14.01,2013-01-06 09:50:00,
2013-01-06 01:55:00,40.7,38.6,30.18,SSW,199,5.0,9.0,92,0.00,,---,0.00,VWS V14.01,2013-01-06 09:55:00,
2013-01-06 02:00:00,40.7,38.6,30.18,South,175,9.0,10.0,92,0.00,,---,0.00,VWS V14.01,2013-01-06 10:00:00,
2013-01-06 02:05:00,40.6,38.5,30.18,South,170,8.0,10.0,92,0.00,,---,0.00,VWS V14.01,2013-01-06 10:05:00,
2013-01-06 02:10:00,40.6,38.5,30.19,South,184,9.0,12.0,92,0.00,,---,0.00,VWS V14.01,2013-01-06 10:10:00,
2013-01-06 02:15:00,40.6,38.5,30.19,SSE,163,4.0,12.0,92,0.00,,---,0.00,VWS V14.01,2013-01-06 10:15:00,
2013-01-06 02:20:00,40.5,38.4,30.19,South,170,4.0,7.0,92,0.00,,---,0.00,VWS V14.01,2013-01-06 10:20:00,
2013-01-06 02:25:00,40.5,38.6,30.19,SSE,165,5.0,10.0,93,0.00,,---,0.00,VWS V14.01,2013-01-06 10:25:00,
2013-01-06 02:30:00,40.4,38.5,30.19,SSE,157,2.0,10.0,93,0.00,,---,0.00,VWS V14.01,2013-01-06 10:30:00,
2013-01-06 02:35:00,40.4,38.5,30.19,SSE,149,9.0,12.0,93,0.00,,---,0.00,VWS V14.01,2013-01-06 10:35:00,
2013-01-06 02:40:00,40.3,38.2,30.19,SSE,164,7.0,12.0,92,0.00,,---,0.00,VWS V14.01,2013-01-06 10:40:00,
2013-01-06 02:45:00,40.2,38.1,30.19,SSE,161,8.0,12.0,92,0.00,,---,0.00,VWS V14.01,2013-01-06 10:45:00,
2013-01-06 02:50:00,40.1,38.2,30.19,South,175,2.0,6.0,93,0.00,,---,0.00,VWS V14.01,2013-01-06 10:50:00,
2013-01-06 02:55:00,40.0,38.1,30.18,SSE,155,8.0,11.0,93,0.00,,---,0.00,VWS V14.01,2013-01-06 10:55:00,
2013-01-06 03:00:00,39.9,38.0,30.18,SSE,167,7.0,12.0,93,0.00,,---,0.00,VWS V14.01,2013-01-06 11:00:00,
2013-01-06 03:05:00,39.8,38.0,30.18,SSW,194,5.0,14.0,93,0.00,,---,0.00,VWS V14.01,2013-01-06 11:05:00,
2013-01-06 03:10:00,39.7,37.8,30.18,SSE,157,8.0,14.0,93,0.00,,---,0.00,VWS V14.01,2013-01-06 11:10:00,
2013-01-06 03:15:00,39.6,37.8,30.18,SSE,153,5.0,15.0,93,0.00,,---,0.00,VWS V14.01,2013-01-06 11:15:00,
2013-01-06 03:20:00,39.4,37.5,30.18,SSE,163,6.0,10.0,93,0.00,,---,0.00,VWS V14.01,2013-01-06 11:20:00,
2013-01-06 03:25:00,39.3,37.5,30.18,SE,126,9.0,12.0,93,0.00,,---,0.00,VWS V14.01,2013-01-06 11:25:00,
2013-01-06 03:30:00,39.2,37.3,30.18,South,188,3.0,15.0,93,0.00,,---,0.00,VWS V14.01,2013-01-06 11:30:00,
2013-01-06 03:35:00,39.2,37.6,30.17,SSE,167,7.0,10.0,94,0.00,,---,0.00,VWS V14.01,2013-01-06 11:35:00,
2013-01-06 03:40:00,39.1,37.5,30.18,South,171,7.0,14.0,94,0.00,,---,0.00,VWS V14.01,2013-01-06 11:40:00,
2013-01-06 03:45:00,39.1,37.5,30.18,SSE,159,10.0,14.0,94,0.00,,---,0.00,VWS V14.01,2013-01-06 11:45:00,
2013-01-06 03:50:00,39.1,37.5,30.17,SSW,196,4.0,11.0,94,0.00,,---,0.00,VWS V14.01,2013-01-06 11:50:00,
2013-01-06 03:55:00,39.3,37.7,30.17,SSE,159,13.0,17.0,94,0.00,,---,0.00,VWS V14.01,2013-01-06 11:55:00,
2013-01-06 04:00:00,39.3,37.7,30.17,SSE,157,9.0,17.0,94,0.00,,---,0.00,VWS V14.01,2013-01-06 12:00:00,
2013-01-06 04:04:00,39.5,37.9,30.17,SSE,165,13.0,16.0,94,0.00,,---,0.00,VWS V14.01,2013-01-06 12:04:00,
2013-01-06 04:09:00,39.6,37.8,30.17,South,181,6.0,16.0,93,0.00,,---,0.00,VWS V14.01,2013-01-06 12:09:00,
2013-01-06 04:14:00,39.6,37.8,30.17,SSE,155,7.0,17.0,93,0.00,,---,0.00,VWS V14.01,2013-01-06 12:14:00,
2013-01-06 04:19:00,39.6,37.8,30.16,NW,311,3.0,11.0,93,0.00,,---,0.00,VWS V14.01,2013-01-06 12:19:00,
2013-01-06 04:24:00,39.6,37.8,30.16,SE,144,10.0,17.0,93,0.00,,---,0.00,VWS V14.01,2013-01-06 12:24:00,
2013-01-06 04:29:00,39.6,37.8,30.16,ESE,123,12.0,17.0,93,0.00,,---,0.00,VWS V14.01,2013-01-06 12:29:00,
2013-01-06 04:34:00,39.5,37.7,30.16,SSE,152,9.0,10.0,93,0.00,,---,0.00,VWS V14.01,2013-01-06 12:34:00,
2013-01-06 04:39:00,39.4,37.5,30.16,SSE,161,5.0,12.0,93,0.00,,---,0.00,VWS V14.01,2013-01-06 12:39:00,
2013-01-06 04:44:00,41.8,38.5,30.16,SSE,153,4.0,12.0,88,0.00,,---,0.00,VWS V14.01,2013-01-06 12:44:00,
2013-01-06 04:49:00,41.9,38.6,30.16,SSE,150,2.0,9.0,88,0.00,,---,0.00,VWS V14.01,2013-01-06 12:49:00,
2013-01-06 04:54:00,42.0,38.4,30.16,SSE,155,5.0,12.0,87,0.00,,---,0.00,VWS V14.01,2013-01-06 12:54:00,
2013-01-06 04:59:00,42.2,38.6,30.16,SSE,161,6.0,16.0,87,0.00,,---,0.00,VWS V14.01,2013-01-06 12:59:00,
2013-01-06 05:04:00,42.3,38.4,30.15,SSE,163,6.0,12.0,86,0.00,,---,0.00,VWS V14.01,2013-01-06 13:04:00,
2013-01-06 05:09:00,42.3,38.4,30.16,South,171,10.0,13.0,86,0.00,,---,0.00,VWS V14.01,2013-01-06 13:09:00,
2013-01-06 05:14:00,42.4,38.5,30.16,SSE,165,4.0,14.0,86,0.00,,---,0.00,VWS V14.01,2013-01-06 13:14:00,
2013-01-06 05:19:00,42.5,38.6,30.16,SSE,152,7.0,18.0,86,0.00,,---,0.00,VWS V14.01,2013-01-06 13:19:00,
2013-01-06 05:24:00,42.5,38.3,30.16,SSE,165,6.0,21.0,85,0.00,,---,0.00,VWS V14.01,2013-01-06 13:24:00,
2013-01-06 05:29:00,42.6,38.4,30.16,SSE,157,11.0,21.0,85,0.00,,---,0.00,VWS V14.01,2013-01-06 13:29:00,
2013-01-06 05:34:00,42.5,38.3,30.16,SSW,192,6.0,17.0,85,0.00,,---,0.00,VWS V14.01,2013-01-06 13:34:00,
2013-01-06 05:39:00,42.4,38.2,30.16,South,169,15.0,19.0,85,0.00,,---,0.00,VWS V14.01,2013-01-06 13:39:00,
2013-01-06 05:44:00,42.3,38.4,30.16,South,173,5.0,19.0,86,0.00,,---,0.00,VWS V14.01,2013-01-06 13:44:00,
2013-01-06 05:49:00,42.4,38.5,30.16,SSE,149,8.0,14.0,86,0.00,,---,0.00,VWS V14.01,2013-01-06 13:49:00,
2013-01-06 05:54:00,42.3,38.4,30.16,SSE,151,6.0,18.0,86,0.00,,---,0.00,VWS V14.01,2013-01-06 13:54:00,
2013-01-06 05:59:00,42.5,38.6,30.16,South,189,6.0,18.0,86,0.00,,---,0.00,VWS V14.01,2013-01-06 13:59:00,
2013-01-06 06:04:00,42.5,38.3,30.16,SSE,148,5.0,13.0,85,0.00,,---,0.00,VWS V14.01,2013-01-06 14:04:00,
2013-01-06 06:09:00,42.4,38.5,30.16,South,176,0.0,13.0,86,0.00,,---,0.00,VWS V14.01,2013-01-06 14:09:00,
2013-01-06 06:14:00,42.5,38.3,30.16,SSE,155,5.0,14.0,85,0.00,,---,0.00,VWS V14.01,2013-01-06 14:14:00,
2013-01-06 06:19:00,42.6,38.4,30.16,SE,129,14.0,14.0,85,0.00,,---,0.00,VWS V14.01,2013-01-06 14:19:00,
2013-01-06 06:24:00,42.8,38.3,30.16,SE,146,0.0,15.0,84,0.00,,---,0.00,VWS V14.01,2013-01-06 14:24:00,
2013-01-06 06:29:00,42.8,38.3,30.16,SSW,195,5.0,15.0,84,0.00,,---,0.00,VWS V14.01,2013-01-06 14:29:00,
2013-01-06 06:34:00,42.9,38.4,30.16,South,179,5.0,7.0,84,0.00,,---,0.00,VWS V14.01,2013-01-06 14:34:00,
2013-01-06 06:39:00,42.9,38.4,30.16,South,190,0.0,10.0,84,0.00,,---,0.00,VWS V14.01,2013-01-06 14:39:00,
2013-01-06 06:44:00,42.8,38.3,30.16,SSW,198,3.0,10.0,84,0.00,,---,0.00,VWS V14.01,2013-01-06 14:44:00,
2013-01-06 06:49:00,42.8,38.3,30.16,SSE,157,1.0,11.0,84,0.00,,---,0.00,VWS V14.01,2013-01-06 14:49:00,
2013-01-06 06:54:00,42.7,38.2,30.16,SSE,158,17.0,19.0,84,0.00,,---,0.00,VWS V14.01,2013-01-06 14:54:00,
2013-01-06 06:59:00,42.7,38.5,30.16,South,185,2.0,19.0,85,0.00,,---,0.00,VWS V14.01,2013-01-06 14:59:00,
2013-01-06 07:04:00,42.5,38.3,30.15,SE,141,6.0,17.0,85,0.00,,---,0.00,VWS V14.01,2013-01-06 15:04:00,
2013-01-06 07:09:00,42.5,38.3,30.16,SE,146,4.0,17.0,85,0.00,,---,0.00,VWS V14.01,2013-01-06 15:09:00,
2013-01-06 07:14:00,42.5,38.6,30.16,South,180,5.0,17.0,86,0.00,,---,0.00,VWS V14.01,2013-01-06 15:14:00,
2013-01-06 07:19:00,42.5,38.6,30.16,SSE,153,0.0,12.0,86,0.00,,---,0.00,VWS V14.01,2013-01-06 15:19:00,
2013-01-06 07:24:00,42.5,38.6,30.16,South,178,7.0,12.0,86,0.00,,---,0.00,VWS V14.01,2013-01-06 15:24:00,
2013-01-06 07:29:00,42.4,38.5,30.16,South,178,4.0,12.0,86,0.00,,---,0.00,VWS V14.01,2013-01-06 15:29:00,
2013-01-06 07:34:00,42.5,38.6,30.17,SSW,194,9.0,16.0,86,0.00,,---,0.00,VWS V14.01,2013-01-06 15:34:00,
2013-01-06 07:39:00,42.4,38.5,30.17,SE,138,5.0,16.0,86,0.00,,---,0.00,VWS V14.01,2013-01-06 15:39:00,
2013-01-06 07:44:00,42.4,38.5,30.17,SSW,210,6.0,16.0,86,0.00,,---,0.00,VWS V14.01,2013-01-06 15:44:00,
2013-01-06 07:49:00,42.5,38.6,30.17,SSE,155,7.0,12.0,86,0.00,,---,0.00,VWS V14.01,2013-01-06 15:49:00,
2013-01-06 07:54:00,42.5,38.6,30.17,SSW,204,1.0,19.0,86,0.00,,---,0.00,VWS V14.01,2013-01-06 15:54:00,
2013-01-06 07:59:00,42.5,38.6,30.18,SW,225,1.0,19.0,86,0.00,,---,0.00,VWS V14.01,2013-01-06 15:59:00,
2013-01-06 08:04:00,42.5,38.6,30.17,SW,223,6.0,9.0,86,0.00,,---,0.00,VWS V14.01,2013-01-06 16:04:00,
2013-01-06 08:09:00,42.5,38.6,30.18,SE,142,8.0,14.0,86,0.00,,---,0.00,VWS V14.01,2013-01-06 16:09:00,
2013-01-06 08:14:00,42.5,38.6,30.18,SSE,148,4.0,14.0,86,0.00,,---,0.00,VWS V14.01,2013-01-06 16:14:00,
2013-01-06 08:19:00,42.4,38.5,30.18,SSE,156,6.0,12.0,86,0.00,,---,0.00,VWS V14.01,2013-01-06 16:19:00,
2013-01-06 08:24:00,42.4,38.8,30.18,SSW,196,2.0,12.0,87,0.00,,---,0.00,VWS V14.01,2013-01-06 16:24:00,
2013-01-06 08:29:00,42.4,38.8,30.19,SSE,153,1.0,14.0,87,0.00,,---,0.00,VWS V14.01,2013-01-06 16:29:00,
2013-01-06 08:34:00,42.4,38.8,30.19,SSW,194,8.0,12.0,87,0.00,,---,0.00,VWS V14.01,2013-01-06 16:34:00,
2013-01-06 08:39:00,42.5,38.9,30.19,South,169,10.0,15.0,87,0.00,,---,0.00,VWS V14.01,2013-01-06 16:39:00,
2013-01-06 08:44:00,42.5,38.6,30.19,South,170,12.0,17.0,86,0.00,,---,0.00,VWS V14.01,2013-01-06 16:44:00,
2013-01-06 08:49:00,42.6,38.7,30.19,SSW,194,10.0,16.0,86,0.00,,---,0.00,VWS V14.01,2013-01-06 16:49:00,
2013-01-06 08:54:00,42.7,38.8,30.18,SW,217,4.0,16.0,86,0.00,,---,0.00,VWS V14.01,2013-01-06 16:54:00,
2013-01-06 08:59:00,42.7,38.8,30.18,SSW,201,5.0,17.0,86,0.00,,---,0.00,VWS V14.01,2013-01-06 16:59:00,
2013-01-06 09:04:00,42.8,38.9,30.18,SSW,201,13.0,17.0,86,0.00,,---,0.00,VWS V14.01,2013-01-06 17:04:00,
2013-01-06 09:09:00,42.8,38.9,30.18,South,169,12.0,17.0,86,0.00,,---,0.00,VWS V14.01,2013-01-06 17:09:00,
2013-01-06 09:14:00,42.9,38.7,30.18,SW,215,7.0,19.0,85,0.00,,---,0.00,VWS V14.01,2013-01-06 17:14:00,
2013-01-06 09:19:00,42.9,38.7,30.19,South,186,11.0,15.0,85,0.00,,---,0.00,VWS V14.01,2013-01-06 17:19:00,
2013-01-06 09:24:00,42.9,38.7,30.19,SSW,199,8.0,18.0,85,0.00,,---,0.00,VWS V14.01,2013-01-06 17:24:00,
2013-01-06 09:29:00,43.0,38.8,30.19,South,169,2.0,18.0,85,0.00,,---,0.00,VWS V14.01,2013-01-06 17:29:00,
2013-01-06 09:34:00,43.0,38.8,30.19,South,180,7.0,13.0,85,0.00,,---,0.00,VWS V14.01,2013-01-06 17:34:00,
2013-01-06 09:39:00,43.1,38.9,30.20,SSW,192,1.0,13.0,85,0.00,,---,0.00,VWS V14.01,2013-01-06 17:39:00,
2013-01-06 09:44:00,43.3,39.1,30.19,SSW,192,0.0,13.0,85,0.00,,---,0.00,VWS V14.01,2013-01-06 17:44:00,
2013-01-06 09:49:00,43.4,39.2,30.20,SSE,158,6.0,6.0,85,0.00,,---,0.00,VWS V14.01,2013-01-06 17:49:00,
2013-01-06 09:54:00,43.2,39.0,30.20,SSE,157,6.0,9.0,85,0.00,,---,0.00,VWS V14.01,2013-01-06 17:54:00,
2013-01-06 09:59:00,43.1,39.2,30.20,SW,217,0.0,9.0,86,0.00,,---,0.00,VWS V14.01,2013-01-06 17:59:00,
2013-01-06 10:04:00,43.1,39.2,30.20,SSE,160,4.0,7.0,86,0.00,,---,0.00,VWS V14.01,2013-01-06 18:04:00,
2013-01-06 10:09:00,43.3,39.4,30.20,SSE,168,0.0,7.0,86,0.00,,---,0.00,VWS V14.01,2013-01-06 18:09:00,
2013-01-06 10:14:00,43.5,39.9,30.20,SSE,167,0.0,7.0,87,0.00,,---,0.00,VWS V14.01,2013-01-06 18:14:00,
2013-01-06 10:19:00,43.6,39.4,30.20,South,182,5.0,6.0,85,0.00,,---,0.00,VWS V14.01,2013-01-06 18:19:00,
2013-01-06 10:24:00,43.6,39.4,30.20,SSE,153,6.0,12.0,85,0.00,,---,0.00,VWS V14.01,2013-01-06 18:24:00,
2013-01-06 10:29:00,43.6,39.4,30.20,SSE,165,5.0,12.0,85,0.00,,---,0.00,VWS V14.01,2013-01-06 18:29:00,
2013-01-06 10:34:00,43.6,39.4,30.20,SSW,202,3.0,7.0,85,0.00,,---,0.00,VWS V14.01,2013-01-06 18:34:00,
2013-01-06 10:39:00,43.6,39.4,30.20,SSE,167,9.0,10.0,85,0.00,,---,0.00,VWS V14.01,2013-01-06 18:39:00,
2013-01-06 10:44:00,43.5,39.3,30.20,SSE,158,15.0,15.0,85,0.00,,---,0.00,VWS V14.01,2013-01-06 18:44:00,
2013-01-06 10:49:00,43.6,39.4,30.20,South,169,2.0,9.0,85,0.00,,---,0.00,VWS V14.01,2013-01-06 18:49:00,
2013-01-06 10:54:00,43.7,39.8,30.19,WNW,294,0.0,12.0,86,0.00,,---,0.00,VWS V14.01,2013-01-06 18:54:00,
2013-01-06 10:59:00,43.9,40.0,30.19,SSE,167,2.0,12.0,86,0.00,,---,0.00,VWS V14.01,2013-01-06 18:59:00,
2013-01-06 11:04:00,43.8,39.6,30.19,SSE,166,5.0,12.0,85,0.00,,---,0.00,VWS V14.01,2013-01-06 19:04:00,
2013-01-06 11:09:00,43.9,39.7,30.19,South,187,5.0,12.0,85,0.00,,---,0.00,VWS V14.01,2013-01-06 19:09:00,
2013-01-06 11:14:00,44.0,39.8,30.19,SSE,154,6.0,12.0,85,0.00,,---,0.00,VWS V14.01,2013-01-06 19:14:00,
2013-01-06 11:19:00,44.0,39.8,30.19,SSE,163,5.0,12.0,85,0.00,,---,0.00,VWS V14.01,2013-01-06 19:19:00,
2013-01-06 11:24:00,44.1,39.9,30.19,South,186,2.0,12.0,85,0.00,,---,0.00,VWS V14.01,2013-01-06 19:24:00,
2013-01-06 11:29:00,44.2,39.7,30.18,SSE,156,6.0,12.0,84,0.00,,---,0.00,VWS V14.01,2013-01-06 19:29:00,
2013-01-06 11:34:00,44.4,39.6,30.18,South,169,6.0,9.0,83,0.00,,---,0.00,VWS V14.01,2013-01-06 19:34:00,
2013-01-06 11:39:00,44.5,39.4,30.18,SSE,164,6.0,12.0,82,0.00,,---,0.00,VWS V14.01,2013-01-06 19:39:00,
2013-01-06 11:44:00,44.6,39.5,30.17,SSW,192,4.0,13.0,82,0.00,,---,0.00,VWS V14.01,2013-01-06 19:44:00,
2013-01-06 11:49:00,44.7,39.5,30.17,SW,222,0.0,12.0,82,0.00,,---,0.00,VWS V14.01,2013-01-06 19:49:00,
2013-01-06 11:54:00,44.8,39.7,30.17,SSE,163,2.0,12.0,82,0.00,,---,0.00,VWS V14.01,2013-01-06 19:54:00,
2013-01-06 11:59:00,44.7,39.5,30.16,South,175,5.0,15.0,82,0.00,,---,0.00,VWS V14.01,2013-01-06 19:59:00,
2013-01-06 12:04:00,44.8,39.7,30.16,South,171,5.0,11.0,82,0.00,,---,0.00,VWS V14.01,2013-01-06 20:04:00,
2013-01-06 12:09:00,44.8,39.7,30.16,SSW,207,8.0,12.0,82,0.00,,---,0.00,VWS V14.01,2013-01-06 20:09:00,
2013-01-06 12:11:00,44.8,39.7,30.16,SE,130,9.0,13.0,82,0.00,,---,0.00,VWS V14.01,2013-01-06 20:11:00,
2013-01-06 12:13:00,44.7,39.5,30.16,South,184,6.0,13.0,82,0.00,,---,0.00,VWS V14.01,2013-01-06 20:13:00,
2013-01-06 12:18:00,44.7,39.9,30.16,SSW,208,12.0,14.0,83,0.00,,---,0.00,VWS V14.01,2013-01-06 20:18:00,
2013-01-06 12:23:00,44.7,39.9,30.16,South,173,5.0,14.0,83,0.00,,---,0.00,VWS V14.01,2013-01-06 20:23:00,
2013-01-06 12:28:00,44.8,40.0,30.15,SSW,203,1.0,15.0,83,0.00,,---,0.00,VWS V14.01,2013-01-06 20:28:00,
2013-01-06 12:33:00,45.0,39.8,30.15,SSE,152,5.0,9.0,82,0.00,,---,0.00,VWS V14.01,2013-01-06 20:33:00,
2013-01-06 12:38:00,45.0,39.8,30.16,SSE,148,6.0,16.0,82,0.00,,---,0.00,VWS V14.01,2013-01-06 20:38:00,
2013-01-06 12:43:00,44.8,40.0,30.16,South,173,12.0,17.0,83,0.00,,---,0.00,VWS V14.01,2013-01-06 20:43:00,
2013-01-06 12:48:00,44.6,40.1,30.16,South,184,4.0,14.0,84,0.00,,---,0.00,VWS V14.01,2013-01-06 20:48:00,
2013-01-06 12:53:00,44.5,40.3,30.15,SSE,158,8.0,14.0,85,0.00,,---,0.00,VWS V14.01,2013-01-06 20:53:00,
2013-01-06 12:58:00,44.4,40.2,30.15,SW,236,3.0,14.0,85,0.00,,---,0.00,VWS V14.01,2013-01-06 20:58:00,
2013-01-06 13:01:00,44.5,40.0,30.15,South,186,6.0,9.0,84,0.00,,---,0.00,VWS V14.01,2013-01-06 21:01:00,
2013-01-06 13:06:00,44.5,40.0,30.15,SSE,149,9.0,18.0,84,0.00,,---,0.00,VWS V14.01,2013-01-06 21:06:00,
2013-01-06 13:11:00,44.7,40.2,30.15,WSW,240,1.0,18.0,84,0.00,,---,0.00,VWS V14.01,2013-01-06 21:11:00,
2013-01-06 13:16:00,44.8,40.3,30.15,SSE,159,6.0,11.0,84,0.00,,---,0.00,VWS V14.01,2013-01-06 21:16:00,
2013-01-06 13:21:00,44.8,40.3,30.15,SSE,167,8.0,18.0,84,0.00,,---,0.00,VWS V14.01,2013-01-06 21:21:00,
2013-01-06 13:26:00,44.8,40.3,30.15,South,172,6.0,18.0,84,0.00,,---,0.00,VWS V14.01,2013-01-06 21:26:00,
2013-01-06 13:31:00,44.9,41.3,30.15,SSE,155,0.0,0.0,87,0.00,,---,0.00,VWS V14.01,2013-01-06 21:31:00,
2013-01-06 13:36:00,44.9,41.3,30.15,South,172,0.0,0.0,87,0.00,,---,0.00,VWS V14.01,2013-01-06 21:36:00,
2013-01-06 13:41:00,44.7,41.1,30.14,SSE,164,10.0,14.0,87,0.00,,---,0.00,VWS V14.01,2013-01-06 21:41:00,
2013-01-06 13:46:00,44.6,40.4,30.14,South,188,7.0,9.0,85,0.00,,---,0.00,VWS V14.01,2013-01-06 21:46:00,
2013-01-06 13:51:00,44.6,40.4,30.14,SSE,159,10.0,12.0,85,0.00,,---,0.00,VWS V14.01,2013-01-06 21:51:00,
2013-01-06 13:56:00,44.6,40.4,30.14,South,178,7.0,15.0,85,0.00,,---,0.00,VWS V14.01,2013-01-06 21:56:00,
2013-01-06 14:01:00,44.7,40.5,30.14,SSE,157,5.0,12.0,85,0.00,,---,0.00,VWS V14.01,2013-01-06 22:01:00,
2013-01-06 14:06:00,44.8,40.6,30.14,South,189,1.0,13.0,85,0.00,,---,0.00,VWS V14.01,2013-01-06 22:06:00,
2013-01-06 14:11:00,44.9,40.7,30.14,South,190,5.0,13.0,85,0.00,,---,0.00,VWS V14.01,2013-01-06 22:11:00,
2013-01-06 14:16:00,45.0,40.5,30.15,SSW,205,3.0,6.0,84,0.00,,---,0.00,VWS V14.01,2013-01-06 22:16:00,
2013-01-06 14:21:00,45.2,40.7,30.15,South,175,6.0,10.0,84,0.00,,---,0.00,VWS V14.01,2013-01-06 22:21:00,
2013-01-06 14:26:00,45.3,41.1,30.15,SSE,155,0.0,10.0,85,0.00,,---,0.00,VWS V14.01,2013-01-06 22:26:00,
2013-01-06 14:31:00,45.4,40.9,30.15,SSW,213,3.0,4.0,84,0.00,,---,0.00,VWS V14.01,2013-01-06 22:31:00,
2013-01-06 14:36:00,45.4,40.9,30.15,South,188,5.0,10.0,84,0.00,,---,0.00,VWS V14.01,2013-01-06 22:36:00,
2013-01-06 14:41:00,45.3,40.8,30.15,South,173,8.0,13.0,84,0.00,,---,0.00,VWS V14.01,2013-01-06 22:41:00,
2013-01-06 14:46:00,45.3,40.8,30.14,SSE,163,5.0,6.0,84,0.00,,---,0.00,VWS V14.01,2013-01-06 22:46:00,
2013-01-06 14:51:00,45.3,40.5,30.14,SSE,148,1.0,12.0,83,0.00,,---,0.00,VWS V14.01,2013-01-06 22:51:00,
2013-01-06 14:56:00,45.3,40.5,30.14,SSE,162,5.0,12.0,83,0.00,,---,0.00,VWS V14.01,2013-01-06 22:56:00,
2013-01-06 15:01:00,45.4,40.5,30.13,SSE,157,2.0,4.0,83,0.00,,---,0.00,VWS V14.01,2013-01-06 23:01:00,
2013-01-06 15:06:00,45.4,40.5,30.13,South,190,5.0,14.0,83,0.00,,---,0.00,VWS V14.01,2013-01-06 23:06:00,
2013-01-06 15:11:00,45.5,40.7,30.13,South,177,5.0,14.0,83,0.00,,---,0.00,VWS V14.01,2013-01-06 23:11:00,
2013-01-06 15:16:00,45.5,40.7,30.12,South,169,2.0,5.0,83,0.00,,---,0.00,VWS V14.01,2013-01-06 23:16:00,
2013-01-06 15:21:00,45.4,40.5,30.12,SE,142,4.0,10.0,83,0.00,,---,0.00,VWS V14.01,2013-01-06 23:21:00,
2013-01-06 15:26:00,45.6,40.7,30.12,SSE,168,5.0,10.0,83,0.00,,---,0.00,VWS V14.01,2013-01-06 23:26:00,
2013-01-06 15:31:00,45.6,40.7,30.12,SSW,203,0.0,3.0,83,0.00,,---,0.00,VWS V14.01,2013-01-06 23:31:00,
2013-01-06 15:36:00,45.5,40.7,30.12,SSE,156,8.0,13.0,83,0.00,,---,0.00,VWS V14.01,2013-01-06 23:36:00,
2013-01-06 15:41:00,45.5,40.7,30.12,SSE,159,5.0,13.0,83,0.00,,---,0.00,VWS V14.01,2013-01-06 23:41:00,
2013-01-06 15:46:00,45.6,40.7,30.12,SSE,158,4.0,9.0,83,0.00,,---,0.00,VWS V14.01,2013-01-06 23:46:00,
2013-01-06 15:51:00,45.6,40.7,30.12,SSE,152,10.0,11.0,83,0.00,,---,0.00,VWS V14.01,2013-01-06 23:51:00,
2013-01-06 15:56:00,45.6,40.7,30.12,South,173,0.0,11.0,83,0.00,,---,0.00,VWS V14.01,2013-01-06 23:56:00,
2013-01-06 16:01:00,45.6,40.4,30.12,South,171,4.0,7.0,82,0.00,,---,0.00,VWS V14.01,2013-01-07 00:01:00,
2013-01-06 16:06:00,45.7,40.5,30.13,South,182,6.0,13.0,82,0.00,,---,0.00,VWS V14.01,2013-01-07 00:06:00,
2013-01-06 16:11:00,45.7,40.5,30.12,SSE,157,9.0,13.0,82,0.00,,---,0.00,VWS V14.01,2013-01-07 00:11:00,
2013-01-06 16:16:00,45.7,40.5,30.13,South,184,1.0,8.0,82,0.00,,---,0.00,VWS V14.01,2013-01-07 00:16:00,
2013-01-06 16:21:00,45.7,40.5,30.12,South,183,3.0,8.0,82,0.00,,---,0.00,VWS V14.01,2013-01-07 00:21:00,
2013-01-06 16:26:00,45.7,40.5,30.12,SE,140,4.0,8.0,82,0.00,,---,0.00,VWS V14.01,2013-01-07 00:26:00,
2013-01-06 16:31:00,45.8,40.6,30.12,SSE,154,1.0,5.0,82,0.00,,---,0.00,VWS V14.01,2013-01-07 00:31:00,
2013-01-06 16:36:00,45.8,40.6,30.12,South,173,5.0,11.0,82,0.00,,---,0.00,VWS V14.01,2013-01-07 00:36:00,
2013-01-06 16:41:00,45.8,40.3,30.11,SSE,163,6.0,11.0,81,0.00,,---,0.00,VWS V14.01,2013-01-07 00:41:00,
2013-01-06 16:46:00,45.8,40.0,30.11,SE,146,5.0,7.0,80,0.00,,---,0.00,VWS V14.01,2013-01-07 00:46:00,
2013-01-06 16:51:00,45.9,40.1,30.11,SSE,151,11.0,11.0,80,0.00,,---,0.00,VWS V14.01,2013-01-07 00:51:00,
2013-01-06 16:56:00,45.8,40.0,30.10,SSE,165,4.0,15.0,80,0.00,,---,0.00,VWS V14.01,2013-01-07 00:56:00,
2013-01-06 17:01:00,45.8,40.0,30.10,South,182,3.0,5.0,80,0.00,,---,0.00,VWS V14.01,2013-01-07 01:01:00,
2013-01-06 17:06:00,45.8,40.0,30.11,South,180,1.0,9.0,80,0.00,,---,0.00,VWS V14.01,2013-01-07 01:06:00,
2013-01-06 17:11:00,45.8,40.0,30.10,South,178,5.0,11.0,80,0.00,,---,0.00,VWS V14.01,2013-01-07 01:11:00,
2013-01-06 17:16:00,45.8,40.0,30.10,South,170,5.0,6.0,80,0.00,,---,0.00,VWS V14.01,2013-01-07 01:16:00,
2013-01-06 17:21:00,45.8,40.0,30.10,SSE,165,6.0,11.0,80,0.00,,---,0.00,VWS V14.01,2013-01-07 01:21:00,
2013-01-06 17:26:00,45.8,40.0,30.10,South,174,9.0,11.0,80,0.00,,---,0.00,VWS V14.01,2013-01-07 01:26:00,
2013-01-06 17:31:00,45.8,40.0,30.10,South,176,2.0,4.0,80,0.00,,---,0.00,VWS V14.01,2013-01-07 01:31:00,
2013-01-06 17:36:00,45.8,40.0,30.10,SSW,194,3.0,8.0,80,0.00,,---,0.00,VWS V14.01,2013-01-07 01:36:00,
2013-01-06 17:41:00,45.8,40.0,30.10,South,169,1.0,10.0,80,0.00,,---,0.00,VWS V14.01,2013-01-07 01:41:00,
2013-01-06 17:46:00,45.8,40.3,30.10,SSE,159,7.0,7.0,81,0.00,,---,0.00,VWS V14.01,2013-01-07 01:46:00,
2013-01-06 17:51:00,45.8,40.3,30.10,SSE,153,2.0,9.0,81,0.00,,---,0.00,VWS V14.01,2013-01-07 01:51:00,
2013-01-06 17:56:00,45.8,40.3,30.09,SSE,168,8.0,9.0,81,0.00,,---,0.00,VWS V14.01,2013-01-07 01:56:00,
2013-01-06 18:01:00,45.7,40.2,30.09,South,175,9.0,9.0,81,0.00,,---,0.00,VWS V14.01,2013-01-07 02:01:00,
2013-01-06 18:06:00,45.8,40.3,30.09,South,184,5.0,9.0,81,0.00,,---,0.00,VWS V14.01,2013-01-07 02:06:00,
2013-01-06 18:11:00,45.7,40.2,30.09,South,178,4.0,9.0,81,0.00,,---,0.00,VWS V14.01,2013-01-07 02:11:00,
2013-01-06 18:16:00,45.7,40.2,30.09,SSE,164,2.0,2.0,81,0.00,,---,0.00,VWS V14.01,2013-01-07 02:16:00,
2013-01-06 18:21:00,45.6,40.1,30.09,SSE,159,5.0,12.0,81,0.00,,---,0.00,VWS V14.01,2013-01-07 02:21:00,
2013-01-06 18:26:00,45.6,40.1,30.09,South,186,8.0,12.0,81,0.00,,---,0.00,VWS V14.01,2013-01-07 02:26:00,
2013-01-06 18:31:00,45.6,40.1,30.09,South,172,5.0,5.0,81,0.00,,---,0.00,VWS V14.01,2013-01-07 02:31:00,
2013-01-06 18:36:00,45.6,39.8,30.09,South,182,3.0,13.0,80,0.00,,---,0.00,VWS V14.01,2013-01-07 02:36:00,
2013-01-06 18:41:00,45.6,39.8,30.09,SSE,167,5.0,13.0,80,0.00,,---,0.00,VWS V14.01,2013-01-07 02:41:00,
2013-01-06 18:46:00,45.6,39.8,30.09,SSW,202,5.0,5.0,80,0.00,,---,0.00,VWS V14.01,2013-01-07 02:46:00,
2013-01-06 18:51:00,45.6,39.8,30.09,SSE,155,7.0,15.0,80,0.00,,---,0.00,VWS V14.01,2013-01-07 02:51:00,
2013-01-06 18:56:00,45.7,39.6,30.09,SSE,168,9.0,15.0,79,0.00,,---,0.00,VWS V14.01,2013-01-07 02:56:00,
2013-01-06 19:01:00,45.5,39.0,30.09,South,177,7.0,7.0,78,0.00,,---,0.00,VWS V14.01,2013-01-07 03:01:00,
2013-01-06 19:06:00,45.5,39.4,30.09,South,171,5.0,11.0,79,0.00,,---,0.00,VWS V14.01,2013-01-07 03:06:00,
2013-01-06 19:11:00,45.5,39.0,30.09,SSE,164,7.0,12.0,78,0.00,,---,0.00,VWS V14.01,2013-01-07 03:11:00,
2013-01-06 19:16:00,45.5,39.0,30.09,South,179,5.0,5.0,78,0.00,,---,0.00,VWS V14.01,2013-01-07 03:16:00,
2013-01-06 19:21:00,45.6,39.2,30.09,SSW,194,2.0,11.0,78,0.00,,---,0.00,VWS V14.01,2013-01-07 03:21:00,
2013-01-06 19:26:00,45.6,39.2,30.09,South,191,0.0,14.0,78,0.00,,---,0.00,VWS V14.01,2013-01-07 03:26:00,
2013-01-06 19:31:00,45.6,38.8,30.08,South,181,6.0,6.0,77,0.00,,---,0.00,VWS V14.01,2013-01-07 03:31:00,
2013-01-06 19:36:00,45.5,38.7,30.08,SSW,195,4.0,14.0,77,0.00,,---,0.00,VWS V14.01,2013-01-07 03:36:00,
2013-01-06 19:41:00,45.5,38.7,30.08,South,176,11.0,16.0,77,0.00,,---,0.00,VWS V14.01,2013-01-07 03:41:00,
2013-01-06 19:46:00,45.5,38.7,30.08,SSE,161,6.0,6.0,77,0.00,,---,0.00,VWS V14.01,2013-01-07 03:46:00,
2013-01-06 19:51:00,45.5,38.7,30.09,South,183,4.0,14.0,77,0.00,,---,0.00,VWS V14.01,2013-01-07 03:51:00,
2013-01-06 19:56:00,45.5,38.7,30.09,South,182,0.0,14.0,77,0.00,,---,0.00,VWS V14.01,2013-01-07 03:56:00,
2013-01-06 20:01:00,45.5,38.7,30.08,SE,140,9.0,9.0,77,0.00,,---,0.00,VWS V14.01,2013-01-07 04:01:00,
2013-01-06 20:06:00,45.5,38.7,30.08,South,185,2.0,14.0,77,0.00,,---,0.00,VWS V14.01,2013-01-07 04:06:00,
2013-01-06 20:11:00,45.5,38.7,30.09,SSE,148,4.0,14.0,77,0.00,,---,0.00,VWS V14.01,2013-01-07 04:11:00,
2013-01-06 20:16:00,45.5,38.7,30.08,SSE,161,7.0,7.0,77,0.00,,---,0.00,VWS V14.01,2013-01-07 04:16:00,
2013-01-06 20:21:00,45.4,39.0,30.08,SSE,150,6.0,10.0,78,0.00,,---,0.00,VWS V14.01,2013-01-07 04:21:00,
2013-01-06 20:26:00,45.4,39.3,30.08,South,179,0.0,13.0,79,0.00,,---,0.00,VWS V14.01,2013-01-07 04:26:00,
2013-01-06 20:31:00,45.5,39.0,30.08,SSE,157,2.0,2.0,78,0.00,,---,0.00,VWS V14.01,2013-01-07 04:31:00,
2013-01-06 20:36:00,45.3,38.9,30.08,SSE,148,7.0,8.0,78,0.00,,---,0.00,VWS V14.01,2013-01-07 04:36:00,
2013-01-06 20:41:00,45.0,38.9,30.08,SSE,148,8.0,9.0,79,0.00,,---,0.00,VWS V14.01,2013-01-07 04:41:00,
2013-01-06 20:46:00,44.8,39.0,30.07,SSE,155,6.0,9.0,80,0.00,,---,0.00,VWS V14.01,2013-01-07 04:46:00,
2013-01-06 20:51:00,44.5,39.4,30.07,SSE,155,9.0,9.0,82,0.00,,---,0.00,VWS V14.01,2013-01-07 04:51:00,
2013-01-06 20:56:00,44.2,39.4,30.07,SSE,150,1.0,10.0,83,0.00,,---,0.00,VWS V14.01,2013-01-07 04:56:00,
2013-01-06 21:00:00,44.2,39.7,30.07,SSE,166,6.0,10.0,84,0.00,,---,0.00,VWS V14.01,2013-01-07 05:00:00,
2013-01-06 21:05:00,43.9,39.4,30.07,SSE,165,2.0,9.0,84,0.00,,---,0.00,VWS V14.01,2013-01-07 05:05:00,
2013-01-06 21:10:00,43.8,39.6,30.06,SSE,152,4.0,9.0,85,0.00,,---,0.00,VWS V14.01,2013-01-07 05:10:00,
2013-01-06 21:15:00,43.7,39.2,30.06,SSE,161,0.0,9.0,84,0.00,,---,0.00,VWS V14.01,2013-01-07 05:15:00,
2013-01-06 21:20:00,43.8,39.6,30.06,SSE,158,0.0,9.0,85,0.00,,---,0.00,VWS V14.01,2013-01-07 05:20:00,
2013-01-06 21:25:00,43.7,39.2,30.06,South,190,0.0,9.0,84,0.00,,---,0.00,VWS V14.01,2013-01-07 05:25:00,
2013-01-06 21:30:00,43.8,39.6,30.06,SSE,151,0.0,9.0,85,0.00,,---,0.00,VWS V14.01,2013-01-07 05:30:00,
2013-01-06 21:35:00,43.8,39.6,30.05,SE,138,2.0,7.0,85,0.00,,---,0.00,VWS V14.01,2013-01-07 05:35:00,
2013-01-06 21:40:00,43.8,39.6,30.05,SSE,161,0.0,7.0,85,0.00,,---,0.00,VWS V14.01,2013-01-07 05:40:00,
2013-01-06 21:45:00,43.8,39.9,30.05,SSE,161,0.0,7.0,86,0.00,,---,0.00,VWS V14.01,2013-01-07 05:45:00,
2013-01-06 21:50:00,43.8,39.9,30.05,SSE,161,0.0,4.0,86,0.00,,---,0.00,VWS V14.01,2013-01-07 05:50:00,
2013-01-06 21:55:00,43.8,39.6,30.05,SSE,159,1.0,5.0,85,0.00,,---,0.00,VWS V14.01,2013-01-07 05:55:00,
2013-01-06 22:00:00,43.6,39.4,30.04,SSE,157,2.0,5.0,85,0.00,,---,0.00,VWS V14.01,2013-01-07 06:00:00,
2013-01-06 22:05:00,43.3,39.1,30.04,SSE,165,7.0,15.0,85,0.00,,---,0.00,VWS V14.01,2013-01-07 06:05:00,
2013-01-06 22:10:00,42.8,38.9,30.04,SSE,152,4.0,15.0,86,0.00,,---,0.00,VWS V14.01,2013-01-07 06:10:00,
2013-01-06 22:15:00,42.5,38.9,30.04,SSE,157,7.0,15.0,87,0.00,,---,0.00,VWS V14.01,2013-01-07 06:15:00,
2013-01-06 22:20:00,42.3,38.7,30.04,SSE,148,13.0,13.0,87,0.00,,---,0.00,VWS V14.01,2013-01-07 06:20:00,
2013-01-06 22:25:00,42.1,38.5,30.04,SSE,156,7.0,13.0,87,0.00,,---,0.00,VWS V14.01,2013-01-07 06:25:00,
2013-01-06 22:30:00,42.0,38.4,30.04,SSE,153,0.0,13.0,87,0.00,,---,0.00,VWS V14.01,2013-01-07 06:30:00,
2013-01-06 22:35:00,42.0,38.7,30.04,SSE,159,7.0,11.0,88,0.00,,---,0.00,VWS V14.01,2013-01-07 06:35:00,
2013-01-06 22:40:00,42.0,38.7,30.04,SSE,153,1.0,11.0,88,0.00,,---,0.00,VWS V14.01,2013-01-07 06:40:00,
2013-01-06 22:45:00,42.0,38.7,30.03,SE,145,2.0,11.0,88,0.00,,---,0.00,VWS V14.01,2013-01-07 06:45:00,
2013-01-06 22:50:00,42.0,38.7,30.03,SSE,167,7.0,8.0,88,0.01,,---,0.01,VWS V14.01,2013-01-07 06:50:00,
2013-01-06 22:55:00,42.0,38.7,30.02,SSE,151,2.0,8.0,88,0.01,,---,0.01,VWS V14.01,2013-01-07 06:55:00,
2013-01-06 23:00:00,42.1,38.8,30.02,SE,125,5.0,8.0,88,0.01,,---,0.01,VWS V14.01,2013-01-07 07:00:00,
2013-01-06 23:05:00,42.0,38.7,30.02,SSE,161,4.0,10.0,88,0.01,,---,0.01,VWS V14.01,2013-01-07 07:05:00,
2013-01-06 23:10:00,42.0,38.7,30.02,SSE,155,6.0,10.0,88,0.01,,---,0.01,VWS V14.01,2013-01-07 07:10:00,
2013-01-06 23:15:00,42.0,38.7,30.01,SSE,164,5.0,10.0,88,0.01,,---,0.01,VWS V14.01,2013-01-07 07:15:00,
2013-01-06 23:20:00,42.1,38.8,30.01,SSE,150,1.0,7.0,88,0.01,,---,0.01,VWS V14.01,2013-01-07 07:20:00,
2013-01-06 23:25:00,42.2,38.9,30.01,SSE,148,5.0,8.0,88,0.01,,---,0.01,VWS V14.01,2013-01-07 07:25:00,
2013-01-06 23:30:00,42.2,38.6,30.01,SE,146,4.0,9.0,87,0.01,,---,0.01,VWS V14.01,2013-01-07 07:30:00,
2013-01-06 23:35:00,42.2,38.6,30.01,SE,132,5.0,7.0,87,0.01,,---,0.01,VWS V14.01,2013-01-07 07:35:00,
2013-01-06 23:40:00,42.2,38.6,30.01,SSE,157,1.0,10.0,87,0.01,,---,0.01,VWS V14.01,2013-01-07 07:40:00,
2013-01-06 23:45:00,42.2,38.9,30.01,SE,139,2.0,10.0,88,0.01,,---,0.01,VWS V14.01,2013-01-07 07:45:00,
2013-01-06 23:50:00,42.2,38.9,30.01,SE,146,0.0,6.0,88,0.01,,---,0.01,VWS V14.01,2013-01-07 07:50:00,
2013-01-06 23:55:00,42.3,39.3,30.01,SE,146,0.0,6.0,89,0.01,,---,0.01,VWS V14.01,2013-01-07 07:55:00,